Time;durP1;ratioP1;P1;durP2;ratioP2;P2;SDS_P1;SDS_P2;PMS_P1;PMS_P2;Temp;Humidity;BMP_temperature;BMP_pressure;BME280_temperature;BME280_humidity;BME280_pressure;Samples;Min_cycle;Max_cycle;Signal;HPM_P1;HPM_P2
2023/07/21 00:00:58;;;;;;;8.52;7.32;;;16.40;73.30;;;;;;4965239;28;20026;-79
2023/07/21 00:03:24;;;;;;;10.55;9.27;;;16.30;73.20;;;;;;4961600;28;20125;-78
2023/07/21 00:05:49;;;;;;;9.85;8.18;;;16.30;73.80;;;;;;4976327;28;20034;-79
2023/07/21 00:08:15;;;;;;;3.50;3.17;;;16.30;74.10;;;;;;4956419;28;20126;-79
2023/07/21 00:10:40;;;;;;;5.10;4.35;;;16.30;74.10;;;;;;4964370;28;20486;-79
2023/07/21 00:13:06;;;;;;;4.57;4.18;;;16.40;76.30;;;;;;4964810;28;20035;-79
2023/07/21 00:15:33;;;;;;;6.35;5.75;;;16.50;75.00;;;;;;4967371;28;20038;-79
2023/07/21 00:17:58;;;;;;;4.22;3.92;;;16.50;74.50;;;;;;4982156;28;20046;-80
2023/07/21 00:20:25;;;;;;;5.03;4.63;;;16.50;75.60;;;;;;4987039;28;20564;-79
2023/07/21 00:22:51;;;;;;;4.75;4.25;;;16.30;77.20;;;;;;4984902;28;20124;-79
2023/07/21 00:25:16;;;;;;;4.20;3.80;;;16.40;76.50;;;;;;4984398;28;20031;-79
2023/07/21 00:27:42;;;;;;;8.95;7.43;;;16.40;76.30;;;;;;4955313;28;20096;-79
2023/07/21 00:30:08;;;;;;;8.75;7.85;;;16.30;77.60;;;;;;4970232;28;20031;-79
2023/07/21 00:32:35;;;;;;;7.82;6.45;;;16.10;79.30;;;;;;4980014;28;20030;-79
2023/07/21 00:35:01;;;;;;;9.55;8.02;;;15.90;77.90;;;;;;4969789;28;20493;-79
2023/07/21 00:37:27;;;;;;;9.90;8.93;;;15.90;79.30;;;;;;4970710;28;20038;-79
2023/07/21 00:39:53;;;;;;;9.13;8.32;;;15.80;77.70;;;;;;4982673;28;20030;-79
2023/07/21 00:42:18;;;;;;;5.00;4.60;;;15.90;77.50;;;;;;4957070;28;20045;-79
2023/07/21 00:44:44;;;;;;;4.25;3.88;;;15.90;77.70;;;;;;4949492;28;20117;-79
2023/07/21 00:47:10;;;;;;;5.07;4.25;;;15.90;78.00;;;;;;4967221;28;20069;-79
2023/07/21 00:49:37;;;;;;;7.70;6.25;;;15.90;79.30;;;;;;4963938;28;20041;-79
2023/07/21 00:52:02;;;;;;;7.72;7.00;;;16.00;79.20;;;;;;4958752;28;20046;-80
2023/07/21 00:54:28;;;;;;;4.65;4.25;;;15.90;77.70;;;;;;4961541;28;20042;-79
2023/07/21 00:56:54;;;;;;;5.20;4.70;;;15.80;78.40;;;;;;4957052;28;20042;-79
2023/07/21 00:59:19;;;;;;;4.90;4.50;;;15.80;79.00;;;;;;4968744;28;20341;-78
2023/07/21 01:01:45;;;;;;;5.35;4.70;;;15.90;80.10;;;;;;4955843;28;20695;-79
2023/07/21 01:04:10;;;;;;;7.30;6.38;;;16.00;80.70;;;;;;4971917;28;20122;-79
2023/07/21 01:06:37;;;;;;;7.05;3.92;;;15.80;80.10;;;;;;4947244;28;20414;-78
2023/07/21 01:09:04;;;;;;;7.28;6.57;;;15.70;79.80;;;;;;4981703;28;20490;-79
2023/07/21 01:11:29;;;;;;;5.68;5.18;;;15.80;82.30;;;;;;4969308;28;20042;-80
2023/07/21 01:13:55;;;;;;;5.75;4.53;;;15.80;83.50;;;;;;4960376;28;20046;-80
2023/07/21 01:16:23;;;;;;;6.53;5.82;;;15.70;82.60;;;;;;4986567;28;20042;-79
2023/07/21 01:18:49;;;;;;;7.72;7.03;;;15.60;82.60;;;;;;4972733;28;20057;-79
2023/07/21 01:21:15;;;;;;;5.30;4.80;;;15.70;87.20;;;;;;4979550;28;20169;-78
2023/07/21 01:23:58;;;;;;;10.68;7.60;;;15.60;84.90;;;;;;4956089;28;20114;-79
2023/07/21 01:26:25;;;;;;;8.20;7.40;;;15.60;86.20;;;;;;4952794;28;20038;-79
2023/07/21 01:28:51;;;;;;;9.38;8.38;;;15.50;84.50;;;;;;4989671;28;20037;-79
2023/07/21 01:31:16;;;;;;;8.63;7.82;;;15.40;84.60;;;;;;4969110;28;20133;-79
2023/07/21 01:33:42;;;;;;;6.07;5.47;;;15.30;84.50;;;;;;4956555;28;20078;-79
2023/07/21 01:36:07;;;;;;;5.50;5.00;;;15.30;84.20;;;;;;4969074;28;20036;-79
2023/07/21 01:38:33;;;;;;;8.77;7.10;;;15.30;85.00;;;;;;4970369;28;20448;-79
2023/07/21 01:40:58;;;;;;;6.35;5.75;;;15.40;87.00;;;;;;4967095;28;20034;-79
2023/07/21 01:43:24;;;;;;;9.45;8.48;;;15.40;86.10;;;;;;4981155;28;20034;-79
2023/07/21 01:45:50;;;;;;;5.57;5.07;;;15.40;85.40;;;;;;4951351;28;20105;-79
2023/07/21 01:48:15;;;;;;;6.05;5.53;;;15.30;85.80;;;;;;4957214;28;20121;-79
2023/07/21 01:50:41;;;;;;;11.15;7.47;;;15.40;87.90;;;;;;4967915;28;20482;-79
2023/07/21 01:53:14;;;;;;;8.27;7.47;;;15.40;90.00;;;;;;4958499;28;20039;-79
2023/07/21 01:55:56;;;;;;;8.63;7.45;;;15.40;89.50;;;;;;4965313;28;20042;-79
2023/07/21 01:58:22;;;;;;;6.38;5.65;;;15.20;88.60;;;;;;4970886;28;20449;-79
2023/07/21 02:00:48;;;;;;;8.85;8.05;;;15.30;90.80;;;;;;4953242;28;20102;-80
2023/07/21 02:03:13;;;;;;;4.93;4.05;;;15.40;90.50;;;;;;4954963;28;20030;-79
2023/07/21 02:05:39;;;;;;;5.45;4.85;;;15.30;90.70;;;;;;4956501;28;20125;-79
2023/07/21 02:08:04;;;;;;;7.55;6.35;;;15.30;92.10;;;;;;4973041;28;20112;-79
2023/07/21 02:10:30;;;;;;;10.40;7.03;;;15.30;92.50;;;;;;4962071;28;20046;-79
2023/07/21 02:12:56;;;;;;;7.30;6.60;;;15.20;92.10;;;;;;4967688;28;20104;-80
2023/07/21 02:15:21;;;;;;;6.65;4.88;;;15.20;93.90;;;;;;4977346;28;20067;-79
2023/07/21 02:17:48;;;;;;;7.53;5.75;;;15.30;95.00;;;;;;4968438;28;20098;-79
2023/07/21 02:20:14;;;;;;;8.02;5.85;;;15.20;96.20;;;;;;4955214;28;20415;-80
2023/07/21 02:22:40;;;;;;;9.55;8.55;;;15.30;96.40;;;;;;4964385;28;20042;-79
2023/07/21 02:25:06;;;;;;;10.55;7.88;;;15.30;98.10;;;;;;4974336;28;20038;-79
2023/07/21 02:27:32;;;;;;;6.18;5.35;;;15.20;96.90;;;;;;4961397;28;20034;-79
2023/07/21 02:29:58;;;;;;;6.85;6.15;;;15.20;97.10;;;;;;4978844;28;20030;-79
2023/07/21 02:32:23;;;;;;;6.60;5.70;;;15.20;98.70;;;;;;4980503;28;20034;-79
2023/07/21 02:34:50;;;;;;;3.45;2.90;;;15.30;98.30;;;;;;4973668;28;20031;-79
2023/07/21 02:37:15;;;;;;;6.28;5.68;;;15.40;97.80;;;;;;4965298;28;20038;-79
2023/07/21 02:39:41;;;;;;;6.15;5.55;;;15.40;99.60;;;;;;4964454;28;20026;-80
2023/07/21 02:42:07;;;;;;;4.55;2.95;;;15.30;98.70;;;;;;4975432;28;20070;-79
2023/07/21 02:44:32;;;;;;;4.18;3.78;;;15.50;99.50;;;;;;4955960;28;20398;-79
2023/07/21 02:46:58;;;;;;;5.80;4.90;;;15.50;99.00;;;;;;4973082;28;20043;-79
2023/07/21 02:49:24;;;;;;;5.18;4.68;;;15.40;98.60;;;;;;4947884;28;20042;-79
2023/07/21 02:51:49;;;;;;;8.70;6.00;;;15.20;99.50;;;;;;4967297;28;20580;-79
2023/07/21 02:54:15;;;;;;;6.18;5.10;;;15.20;99.60;;;;;;4962509;28;20062;-79
2023/07/21 02:56:41;;;;;;;8.85;8.00;;;15.20;99.00;;;;;;4950953;28;20029;-79
2023/07/21 02:59:07;;;;;;;7.15;6.45;;;15.10;99.70;;;;;;4963410;28;20453;-79
2023/07/21 03:01:33;;;;;;;6.95;6.30;;;15.10;99.00;;;;;;4969125;28;20112;-79
2023/07/21 03:03:58;;;;;;;7.15;5.47;;;15.10;99.90;;;;;;4960556;28;20502;-79
2023/07/21 03:06:25;;;;;;;5.72;4.50;;;14.90;99.00;;;;;;4969426;28;20049;-79
2023/07/21 03:08:52;;;;;;;9.38;7.80;;;14.90;99.60;;;;;;4950314;28;20049;-79
2023/07/21 03:11:18;;;;;;;6.18;5.60;;;15.00;99.90;;;;;;4956541;28;20516;-79
2023/07/21 03:13:44;;;;;;;5.85;5.03;;;14.90;99.80;;;;;;4960314;28;20123;-79
2023/07/21 03:16:12;;;;;;;9.82;8.20;;;14.90;99.90;;;;;;4936033;28;20402;-79
2023/07/21 03:18:37;;;;;;;8.82;7.68;;;14.80;99.90;;;;;;4969373;28;20670;-80
2023/07/21 03:21:03;;;;;;;7.25;6.28;;;14.90;99.90;;;;;;4968954;28;20026;-80
2023/07/21 03:23:28;;;;;;;7.40;6.68;;;14.90;99.90;;;;;;4970610;28;20034;-79
2023/07/21 03:25:54;;;;;;;6.60;5.85;;;14.80;99.90;;;;;;4968886;28;20038;-80
2023/07/21 03:28:21;;;;;;;7.32;4.82;;;14.80;99.90;;;;;;4972026;28;20564;-79
2023/07/21 03:30:58;;;;;;;11.70;7.72;;;14.80;99.90;;;;;;4956871;28;20392;-79
2023/07/21 03:33:24;;;;;;;11.55;9.88;;;14.80;99.90;;;;;;4954553;28;20517;-79
2023/07/21 03:36:00;;;;;;;9.68;8.70;;;14.60;99.90;;;;;;4960660;28;20035;-79
2023/07/21 03:38:27;;;;;;;8.65;7.82;;;14.60;99.90;;;;;;4984236;28;20544;-79
2023/07/21 03:41:01;;;;;;;7.82;7.07;;;14.70;99.90;;;;;;4969109;28;20166;-79
2023/07/21 03:43:26;;;;;;;4.63;3.90;;;14.80;99.90;;;;;;4977557;28;20509;-81
2023/07/21 03:45:57;;;;;;;6.28;5.30;;;14.60;99.90;;;;;;4947045;28;20038;-79
2023/07/21 03:48:23;;;;;;;6.97;6.28;;;14.60;99.90;;;;;;4971554;28;20031;-79
2023/07/21 03:50:48;;;;;;;10.57;9.25;;;14.50;99.90;;;;;;4959013;28;20050;-79
2023/07/21 03:53:14;;;;;;;10.95;8.32;;;14.70;99.90;;;;;;4951471;28;20034;-79
2023/07/21 03:55:41;;;;;;;10.27;8.15;;;14.50;99.90;;;;;;4968309;28;20022;-79
2023/07/21 03:58:06;;;;;;;6.40;5.78;;;14.50;99.90;;;;;;4960857;28;20117;-79
2023/07/21 04:00:33;;;;;;;7.32;6.03;;;14.50;99.90;;;;;;4968295;28;20546;-78
2023/07/21 04:02:59;;;;;;;10.02;8.30;;;14.60;99.90;;;;;;4967741;28;20034;-79
2023/07/21 04:05:25;;;;;;;6.90;6.00;;;14.60;99.90;;;;;;4972420;28;20061;-79
2023/07/21 04:07:50;;;;;;;6.63;5.13;;;14.60;99.90;;;;;;4973472;28;20031;-79
2023/07/21 04:10:16;;;;;;;8.48;6.20;;;14.50;99.90;;;;;;4951388;28;20023;-78
2023/07/21 04:12:42;;;;;;;7.70;7.00;;;14.60;99.90;;;;;;4955677;28;20513;-78
2023/07/21 04:15:08;;;;;;;6.63;5.93;;;14.50;99.90;;;;;;4963187;28;20042;-78
2023/07/21 04:17:33;;;;;;;5.18;4.72;;;14.50;99.90;;;;;;4972282;28;20081;-79
2023/07/21 04:19:59;;;;;;;4.88;4.47;;;14.60;99.90;;;;;;4967748;28;20034;-79
2023/07/21 04:22:24;;;;;;;4.95;3.65;;;14.90;99.90;;;;;;4963024;28;20042;-78
2023/07/21 04:24:50;;;;;;;7.45;6.72;;;14.80;99.90;;;;;;4953951;28;20059;-79
2023/07/21 04:27:15;;;;;;;8.38;6.00;;;14.70;99.90;;;;;;4962311;28;20054;-79
2023/07/21 04:29:41;;;;;;;12.32;8.75;;;14.60;99.90;;;;;;4968316;28;20601;-77
2023/07/21 04:32:07;;;;;;;5.80;3.97;;;14.60;99.90;;;;;;4962096;28;20041;-77
2023/07/21 04:34:33;;;;;;;9.15;7.00;;;14.60;99.90;;;;;;4972664;28;20398;-77
2023/07/21 04:36:59;;;;;;;5.40;4.57;;;14.80;99.90;;;;;;4957147;28;20031;-76
2023/07/21 04:39:25;;;;;;;9.80;7.70;;;14.80;99.90;;;;;;4959737;28;20831;-76
2023/07/21 04:41:50;;;;;;;11.77;10.30;;;14.80;99.90;;;;;;4953781;28;20030;-76
2023/07/21 04:44:16;;;;;;;13.25;11.85;;;14.60;99.90;;;;;;4955941;28;20433;-76
2023/07/21 04:46:41;;;;;;;16.17;11.73;;;14.60;99.90;;;;;;4968006;28;20629;-76
2023/07/21 04:49:09;;;;;;;20.58;15.25;;;14.70;99.90;;;;;;4975427;28;20057;-77
2023/07/21 04:51:34;;;;;;;16.98;14.45;;;14.80;99.90;;;;;;4968334;28;20035;-77
2023/07/21 04:54:00;;;;;;;17.95;14.77;;;14.90;99.90;;;;;;4956015;28;20046;-76
2023/07/21 04:56:26;;;;;;;11.10;9.70;;;14.90;99.90;;;;;;4965930;28;20494;-76
2023/07/21 04:58:52;;;;;;;9.93;8.52;;;15.00;99.90;;;;;;4967342;28;20058;-76
2023/07/21 05:01:17;;;;;;;6.97;6.35;;;15.10;99.90;;;;;;4980158;28;20034;-76
2023/07/21 05:03:43;;;;;;;6.43;5.03;;;15.20;99.90;;;;;;4964587;28;20486;-78
2023/07/21 05:06:11;;;;;;;8.77;7.35;;;15.40;99.90;;;;;;4943386;28;20062;-78
2023/07/21 05:08:37;;;;;;;10.68;8.02;;;15.60;99.90;;;;;;4954241;28;20085;-76
2023/07/21 05:11:02;;;;;;;5.20;4.00;;;15.50;99.90;;;;;;4961200;28;20495;-75
2023/07/21 05:13:28;;;;;;;15.00;11.40;;;15.60;99.90;;;;;;4969908;28;20045;-76
2023/07/21 05:15:54;;;;;;;13.73;12.23;;;15.70;99.90;;;;;;4971709;28;20026;-76
2023/07/21 05:18:20;;;;;;;7.82;7.05;;;15.70;99.90;;;;;;4972992;28;20026;-75
2023/07/21 05:20:45;;;;;;;7.07;5.50;;;15.60;99.90;;;;;;4970560;28;20115;-76
2023/07/21 05:23:11;;;;;;;11.57;8.18;;;15.60;99.90;;;;;;4957784;28;20058;-76
2023/07/21 05:25:37;;;;;;;13.80;9.90;;;15.70;99.90;;;;;;4955086;28;20026;-76
2023/07/21 05:28:03;;;;;;;16.48;14.10;;;15.80;99.90;;;;;;4962466;28;20027;-75
2023/07/21 05:30:28;;;;;;;10.98;9.13;;;15.80;99.90;;;;;;4962808;28;20102;-76
2023/07/21 05:32:56;;;;;;;20.45;16.55;;;15.90;99.90;;;;;;4970622;28;20023;-76
2023/07/21 05:35:22;;;;;;;22.20;18.77;;;16.00;99.90;;;;;;4970994;28;20549;-76
2023/07/21 05:37:48;;;;;;;19.52;17.42;;;16.10;99.90;;;;;;4986655;28;20125;-76
2023/07/21 05:40:14;;;;;;;15.82;14.10;;;16.30;99.90;;;;;;4956415;28;20219;-76
2023/07/21 05:42:39;;;;;;;20.90;17.05;;;16.50;99.90;;;;;;4963504;28;20509;-75
2023/07/21 05:45:06;;;;;;;20.15;18.10;;;16.70;99.90;;;;;;5002079;28;20030;-76
2023/07/21 05:47:32;;;;;;;9.98;8.98;;;16.90;99.90;;;;;;4973823;28;20033;-75
2023/07/21 05:50:00;;;;;;;8.65;7.82;;;17.10;99.90;;;;;;4971507;28;20030;-75
2023/07/21 05:52:27;;;;;;;10.45;8.57;;;17.30;99.90;;;;;;4965305;28;20050;-75
2023/07/21 05:54:53;;;;;;;13.00;11.32;;;17.50;99.90;;;;;;4967441;28;20410;-75
2023/07/21 05:57:18;;;;;;;14.80;10.70;;;17.60;99.90;;;;;;4972346;28;20034;-76
2023/07/21 05:59:45;;;;;;;11.07;9.23;;;17.80;99.90;;;;;;4952063;28;20050;-76
2023/07/21 06:02:13;;;;;;;16.73;14.90;;;17.90;99.90;;;;;;4963988;28;20066;-76
2023/07/21 06:04:39;;;;;;;17.85;15.05;;;17.90;99.90;;;;;;4960582;28;20445;-76
2023/07/21 06:07:04;;;;;;;9.85;8.35;;;18.10;99.90;;;;;;4965273;28;20027;-76
2023/07/21 06:09:30;;;;;;;13.30;11.90;;;18.10;99.90;;;;;;4938851;28;20092;-76
2023/07/21 06:11:55;;;;;;;7.03;5.70;;;18.40;99.90;;;;;;4976542;28;20156;-76
2023/07/21 06:14:21;;;;;;;13.05;11.75;;;18.50;99.90;;;;;;4970301;28;20085;-76
2023/07/21 06:16:46;;;;;;;9.30;7.97;;;18.70;99.90;;;;;;4952820;28;20075;-77
2023/07/21 06:19:12;;;;;;;14.50;11.57;;;18.80;98.10;;;;;;4971472;28;20058;-76
2023/07/21 06:21:37;;;;;;;17.77;14.02;;;19.00;99.90;;;;;;4968045;28;20046;-77
2023/07/21 06:24:03;;;;;;;15.88;13.60;;;19.20;99.90;;;;;;4966660;28;20097;-76
2023/07/21 06:26:29;;;;;;;12.57;11.02;;;19.40;99.50;;;;;;4977536;28;20112;-75
2023/07/21 06:28:56;;;;;;;5.97;5.43;;;19.70;99.60;;;;;;4967164;28;20046;-75
2023/07/21 06:31:23;;;;;;;7.45;6.63;;;19.70;98.00;;;;;;4984262;28;20023;-75
2023/07/21 06:33:49;;;;;;;10.05;9.02;;;19.70;98.90;;;;;;4957158;28;20699;-77
2023/07/21 06:36:17;;;;;;;9.95;7.68;;;19.90;99.60;;;;;;4971571;28;20026;-77
2023/07/21 06:38:42;;;;;;;8.02;6.13;;;20.20;98.00;;;;;;4953590;28;20506;-75
2023/07/21 06:41:08;;;;;;;10.13;8.65;;;20.40;98.80;;;;;;4958006;28;20047;-77
2023/07/21 06:43:33;;;;;;;15.10;11.52;;;20.50;98.20;;;;;;4965207;28;20127;-75
2023/07/21 06:45:59;;;;;;;12.10;8.38;;;20.70;99.90;;;;;;4946790;28;20059;-75
2023/07/21 06:48:25;;;;;;;13.85;7.93;;;20.90;99.90;;;;;;4960347;28;20038;-75
2023/07/21 06:50:50;;;;;;;11.75;8.70;;;20.60;97.70;;;;;;4982159;28;20049;-75
2023/07/21 06:53:17;;;;;;;10.20;8.98;;;20.60;99.90;;;;;;4980265;28;20038;-77
2023/07/21 06:55:43;;;;;;;8.32;7.50;;;20.80;99.70;;;;;;4956560;28;20553;-75
2023/07/21 06:58:09;;;;;;;6.05;5.38;;;21.00;99.90;;;;;;4970467;28;20035;-76
2023/07/21 07:00:35;;;;;;;9.68;6.38;;;20.90;97.50;;;;;;4969115;28;20106;-76
2023/07/21 07:03:01;;;;;;;12.90;9.63;;;20.90;98.20;;;;;;4955201;28;20034;-75
2023/07/21 07:05:26;;;;;;;6.82;6.13;;;21.20;99.90;;;;;;4967693;28;20057;-75
2023/07/21 07:07:53;;;;;;;8.93;7.03;;;21.50;99.90;;;;;;4967413;28;20053;-76
2023/07/21 07:10:21;;;;;;;10.27;8.05;;;21.70;99.90;;;;;;4998072;28;20085;-75
2023/07/21 07:12:46;;;;;;;9.63;8.68;;;21.90;99.90;;;;;;4959610;28;20026;-75
2023/07/21 07:15:12;;;;;;;10.70;8.40;;;22.20;99.90;;;;;;4953395;28;20513;-76
2023/07/21 07:17:38;;;;;;;8.90;7.10;;;22.50;99.90;;;;;;4967037;28;20395;-75
2023/07/21 07:20:04;;;;;;;8.57;5.82;;;22.60;99.90;;;;;;4965389;28;20479;-76
2023/07/21 07:22:29;;;;;;;9.85;8.20;;;22.70;99.90;;;;;;4935734;28;20714;-76
2023/07/21 07:24:55;;;;;;;5.28;4.63;;;22.90;99.90;;;;;;4983067;28;20034;-75
2023/07/21 07:27:21;;;;;;;12.48;8.65;;;23.00;97.70;;;;;;4969619;28;20108;-77
2023/07/21 07:29:47;;;;;;;8.35;7.18;;;23.10;99.90;;;;;;4955278;28;20042;-76
2023/07/21 07:32:13;;;;;;;10.57;7.28;;;23.30;99.50;;;;;;4950911;28;20131;-76
2023/07/21 07:34:40;;;;;;;7.28;5.60;;;23.40;99.80;;;;;;4956018;28;20651;-76
2023/07/21 07:37:08;;;;;;;8.75;5.18;;;23.50;98.80;;;;;;4950160;28;20037;-75
2023/07/21 07:39:34;;;;;;;10.48;8.98;;;23.70;99.10;;;;;;4957637;28;20038;-75
2023/07/21 07:42:00;;;;;;;7.20;5.88;;;23.90;99.40;;;;;;4949308;28;20157;-76
2023/07/21 07:44:25;;;;;;;9.00;8.02;;;23.70;94.80;;;;;;4950959;28;20110;-75
2023/07/21 07:46:55;;;;;;;6.90;5.85;;;24.00;98.60;;;;;;4968408;28;20038;-78
2023/07/21 07:49:20;;;;;;;5.80;4.68;;;24.40;98.00;;;;;;4996221;28;20065;-77
2023/07/21 07:51:46;;;;;;;13.70;5.60;;;24.50;94.90;;;;;;4958362;28;20462;-77
2023/07/21 07:54:11;;;;;;;5.78;4.82;;;24.40;94.30;;;;;;4970783;28;20040;-78
2023/07/21 07:56:38;;;;;;;8.65;5.50;;;24.70;94.20;;;;;;4953224;28;20061;-77
2023/07/21 07:59:03;;;;;;;8.18;5.10;;;25.10;96.10;;;;;;4949647;28;20567;-76
2023/07/21 08:01:29;;;;;;;7.32;4.88;;;25.40;95.40;;;;;;4980636;28;20089;-76
2023/07/21 08:03:55;;;;;;;7.10;5.40;;;25.50;95.00;;;;;;4954318;28;20027;-76
2023/07/21 08:06:22;;;;;;;7.03;6.43;;;25.70;95.20;;;;;;4967173;28;20502;-76
2023/07/21 08:08:47;;;;;;;8.70;5.25;;;25.90;94.40;;;;;;4964624;28;20041;-76
2023/07/21 08:11:13;;;;;;;4.80;4.05;;;26.20;94.30;;;;;;4964454;28;20537;-76
2023/07/21 08:13:39;;;;;;;4.90;4.43;;;26.20;94.30;;;;;;4987765;28;20070;-76
2023/07/21 08:16:13;;;;;;;4.72;3.67;;;26.30;90.70;;;;;;4974524;28;20405;-75
2023/07/21 08:18:38;;;;;;;5.05;4.57;;;26.50;92.70;;;;;;4977357;28;20687;-75
2023/07/21 08:21:20;;;;;;;4.72;3.90;;;26.40;91.60;;;;;;4962089;28;20054;-76
2023/07/21 08:23:46;;;;;;;4.10;3.70;;;26.60;92.70;;;;;;4969271;28;20393;-75
2023/07/21 08:26:15;;;;;;;4.55;3.70;;;26.70;90.30;;;;;;4978473;28;20486;-76
2023/07/21 08:28:41;;;;;;;5.38;4.88;;;26.90;91.40;;;;;;4960243;28;20045;-76
2023/07/21 08:31:12;;;;;;;3.80;3.05;;;26.90;90.40;;;;;;5003478;28;20034;-76
2023/07/21 08:33:44;;;;;;;3.97;3.58;;;26.60;86.60;;;;;;4970022;28;20445;-76
2023/07/21 08:36:10;;;;;;;4.97;4.57;;;26.70;88.60;;;;;;4947776;28;20117;-77
2023/07/21 08:38:35;;;;;;;4.70;3.63;;;26.90;89.90;;;;;;4987520;28;20117;-76
2023/07/21 08:41:08;;;;;;;4.45;3.50;;;27.10;88.50;;;;;;4988987;28;20105;-77
2023/07/21 08:43:34;;;;;;;4.18;3.67;;;27.20;85.20;;;;;;4969971;28;20033;-76
2023/07/21 08:46:05;;;;;;;6.90;4.85;;;27.30;86.80;;;;;;4957529;28;20449;-77
2023/07/21 08:48:31;;;;;;;4.05;3.63;;;27.40;84.80;;;;;;4937826;28;20037;-77
2023/07/21 08:50:57;;;;;;;5.85;4.53;;;27.60;83.30;;;;;;4965726;28;20057;-77
2023/07/21 08:53:32;;;;;;;7.35;4.53;;;27.80;81.40;;;;;;4963004;28;20051;-76
2023/07/21 08:55:59;;;;;;;3.53;2.83;;;27.80;81.50;;;;;;4957668;28;20071;-76
2023/07/21 08:58:25;;;;;;;6.53;4.65;;;27.70;82.70;;;;;;4960118;28;20971;-77
2023/07/21 09:00:52;;;;;;;6.57;4.63;;;27.60;79.00;;;;;;4952438;28;20031;-77
2023/07/21 09:03:28;;;;;;;3.22;2.75;;;27.70;80.30;;;;;;4959299;28;20030;-76
2023/07/21 09:05:56;;;;;;;3.33;2.90;;;27.90;78.50;;;;;;4960542;28;20066;-77
2023/07/21 09:08:22;;;;;;;4.85;4.45;;;27.90;78.10;;;;;;4986960;28;20037;-77
2023/07/21 09:10:47;;;;;;;3.60;3.30;;;27.80;76.80;;;;;;4970407;28;20397;-76
2023/07/21 09:13:14;;;;;;;8.00;6.13;;;27.70;75.30;;;;;;4955208;28;20031;-77
2023/07/21 09:15:40;;;;;;;7.43;6.03;;;27.60;75.30;;;;;;4970484;28;20523;-77
2023/07/21 09:18:06;;;;;;;9.88;5.65;;;27.70;74.10;;;;;;4950517;28;20361;-77
2023/07/21 09:20:32;;;;;;;4.57;4.18;;;27.80;74.10;;;;;;4952546;28;20045;-77
2023/07/21 09:22:58;;;;;;;9.18;5.30;;;28.00;74.20;;;;;;4961573;28;20570;-77
2023/07/21 09:25:24;;;;;;;10.02;7.35;;;28.20;74.10;;;;;;4954379;28;20133;-77
2023/07/21 09:27:56;;;;;;;7.70;5.43;;;28.60;76.10;;;;;;4986506;28;20173;-77
2023/07/21 09:30:22;;;;;;;4.28;3.78;;;28.60;73.90;;;;;;4985468;28;20038;-76
2023/07/21 09:32:48;;;;;;;3.83;3.42;;;28.60;71.90;;;;;;4979148;28;20039;-76
2023/07/21 09:35:14;;;;;;;4.22;2.55;;;28.60;70.90;;;;;;4971507;28;20038;-77
2023/07/21 09:37:40;;;;;;;5.28;3.15;;;28.60;72.30;;;;;;4958833;28;20053;-77
2023/07/21 09:40:10;;;;;;;3.53;3.15;;;28.60;70.90;;;;;;4956908;28;20407;-77
2023/07/21 09:42:36;;;;;;;4.18;3.78;;;28.70;69.40;;;;;;4975484;28;20040;-77
2023/07/21 09:45:01;;;;;;;3.40;3.00;;;28.80;67.90;;;;;;4971579;28;20039;-76
2023/07/21 09:47:27;;;;;;;3.50;3.20;;;29.00;69.70;;;;;;4954351;28;20365;-76
2023/07/21 09:49:54;;;;;;;6.45;3.85;;;29.10;66.60;;;;;;4963752;28;20058;-78
2023/07/21 09:52:20;;;;;;;4.95;4.47;;;28.40;63.10;;;;;;4954166;28;20585;-76
2023/07/21 09:54:56;;;;;;;2.50;2.30;;;28.40;68.20;;;;;;4974621;28;20078;-76
2023/07/21 09:57:24;;;;;;;4.85;3.15;;;28.40;66.30;;;;;;4986672;28;20516;-76
2023/07/21 09:59:50;;;;;;;3.58;2.70;;;28.60;68.90;;;;;;4952597;28;20380;-79
2023/07/21 10:02:16;;;;;;;4.70;4.30;;;28.60;63.40;;;;;;4997902;28;20050;-77
2023/07/21 10:04:43;;;;;;;4.25;3.83;;;28.30;62.20;;;;;;4969484;28;20390;-76
2023/07/21 10:07:09;;;;;;;4.15;3.10;;;28.60;62.50;;;;;;4972554;28;20042;-77
2023/07/21 10:09:35;;;;;;;3.03;2.70;;;28.80;67.40;;;;;;4973702;28;20030;-77
2023/07/21 10:12:14;;;;;;;2.88;2.65;;;28.70;60.20;;;;;;4978887;28;20462;-78
2023/07/21 10:14:40;;;;;;;5.38;3.92;;;28.80;60.50;;;;;;4968926;28;20533;-77
2023/07/21 10:17:06;;;;;;;6.53;5.20;;;28.30;60.20;;;;;;4999466;28;20034;-77
2023/07/21 10:19:41;;;;;;;5.60;4.97;;;29.10;66.20;;;;;;4966830;28;20633;-77
2023/07/21 10:22:30;;;;;;;3.50;3.20;;;29.70;64.30;;;;;;4984440;28;20138;-77
2023/07/21 10:24:56;;;;;;;5.40;3.95;;;29.80;60.90;;;;;;4967785;28;20132;-78
2023/07/21 10:27:22;;;;;;;3.60;3.13;;;29.60;59.60;;;;;;4969037;28;20486;-78
2023/07/21 10:29:51;;;;;;;2.83;2.63;;;29.60;60.90;;;;;;4965349;28;20514;-78
2023/07/21 10:32:19;;;;;;;3.85;3.00;;;30.10;59.80;;;;;;4953250;28;20035;-78
2023/07/21 10:34:45;;;;;;;3.60;3.30;;;30.40;62.30;;;;;;4964741;28;20074;-78
2023/07/21 10:37:10;;;;;;;10.13;8.63;;;30.50;58.60;;;;;;4973995;28;20054;-78
2023/07/21 10:39:43;;;;;;;3.80;3.50;;;30.60;61.60;;;;;;4974297;28;20026;-78
2023/07/21 10:42:10;;;;;;;3.72;3.42;;;31.00;59.70;;;;;;4975168;28;20110;-77
2023/07/21 10:44:37;;;;;;;5.50;3.80;;;30.90;60.60;;;;;;4983214;28;20041;-77
2023/07/21 10:47:10;;;;;;;6.30;4.03;;;31.00;57.20;;;;;;4970186;28;20065;-78
2023/07/21 10:49:43;;;;;;;5.27;4.20;;;30.50;57.40;;;;;;4281616;28;10000541;-77
2023/07/21 10:52:09;;;;;;;4.05;3.70;;;30.40;59.80;;;;;;4953984;28;20043;-78
2023/07/21 10:54:37;;;;;;;4.22;2.72;;;30.90;56.80;;;;;;4955460;28;20089;-77
2023/07/21 10:57:03;;;;;;;4.57;3.40;;;31.00;58.80;;;;;;4949295;28;20031;-77
2023/07/21 10:59:32;;;;;;;3.00;2.80;;;31.10;55.40;;;;;;4964496;28;20034;-77
2023/07/21 11:01:58;;;;;;;5.00;2.72;;;31.80;57.50;;;;;;4978696;28;20057;-77
2023/07/21 11:04:23;;;;;;;3.67;3.38;;;32.10;56.40;;;;;;4978046;28;20058;-78
2023/07/21 11:06:51;;;;;;;2.83;2.63;;;32.20;56.20;;;;;;4966795;28;20042;-78
2023/07/21 11:09:17;;;;;;;3.40;3.10;;;32.20;55.80;;;;;;4981546;28;20031;-78
2023/07/21 11:11:44;;;;;;;6.20;2.63;;;31.80;53.80;;;;;;4962352;28;20114;-77
2023/07/21 11:14:18;;;;;;;4.63;4.10;;;32.30;55.50;;;;;;4968488;28;20537;-77
2023/07/21 11:17:00;;;;;;;4.60;2.65;;;32.50;55.60;;;;;;4960051;28;20047;-76
2023/07/21 11:19:27;;;;;;;1.92;1.83;;;32.80;53.80;;;;;;4976947;28;20091;-77
2023/07/21 11:21:53;;;;;;;2.88;2.10;;;32.90;54.40;;;;;;4960457;28;20038;-76
2023/07/21 11:24:20;;;;;;;3.42;1.70;;;33.20;53.90;;;;;;4958545;28;20045;-77
2023/07/21 11:26:48;;;;;;;3.63;2.22;;;33.30;54.40;;;;;;4961746;28;20034;-77
2023/07/21 11:29:15;;;;;;;1.67;1.58;;;33.40;52.90;;;;;;4982799;28;20044;-77
2023/07/21 11:31:40;;;;;;;1.90;1.80;;;33.80;51.00;;;;;;4949085;28;20058;-77
2023/07/21 11:34:21;;;;;;;1.80;1.50;;;33.80;52.00;;;;;;4968084;28;20534;-77
2023/07/21 11:36:48;;;;;;;3.90;1.83;;;33.60;51.80;;;;;;4967547;28;20048;-77
2023/07/21 11:39:18;;;;;;;1.95;1.75;;;33.20;49.60;;;;;;4954267;28;20046;-76
2023/07/21 11:41:49;;;;;;;2.15;1.65;;;32.90;49.70;;;;;;4974244;28;20038;-76
2023/07/21 11:44:44;;;;;;;2.92;2.22;;;33.30;53.00;;;;;;4974845;28;20575;-77
2023/07/21 11:47:10;;;;;;;5.95;1.83;;;33.60;51.30;;;;;;4964980;28;20031;-77
2023/07/21 11:49:42;;;;;;;1.90;1.70;;;32.90;48.80;;;;;;4954917;28;20038;-77
2023/07/21 11:52:09;;;;;;;6.15;1.63;;;32.20;49.20;;;;;;4968984;28;20523;-77
2023/07/21 11:54:37;;;;;;;1.90;1.70;;;32.40;50.00;;;;;;4953868;28;20041;-78
2023/07/21 11:57:04;;;;;;;2.80;1.45;;;33.00;51.40;;;;;;4966450;28;20057;-77
2023/07/21 11:59:30;;;;;;;2.10;1.38;;;33.70;50.40;;;;;;4965661;28;20041;-76
2023/07/21 12:01:55;;;;;;;2.40;1.40;;;34.10;49.10;;;;;;4966398;28;20482;-77
2023/07/21 12:04:22;;;;;;;1.63;1.40;;;34.10;48.80;;;;;;4956181;28;20514;-77
2023/07/21 12:06:48;;;;;;;2.97;1.73;;;34.30;48.80;;;;;;4959389;28;20030;-76
2023/07/21 12:09:13;;;;;;;1.10;1.08;;;33.10;46.70;;;;;;4956146;28;20081;-77
2023/07/21 12:11:39;;;;;;;1.27;1.10;;;33.60;51.30;;;;;;4981378;28;20039;-77
2023/07/21 12:14:05;;;;;;;2.50;1.40;;;34.00;48.40;;;;;;4979138;28;20097;-76
2023/07/21 12:16:31;;;;;;;2.80;1.80;;;34.20;47.80;;;;;;4967603;28;20554;-76
2023/07/21 12:18:57;;;;;;;1.85;1.38;;;34.10;47.20;;;;;;4984590;28;20054;-76
2023/07/21 12:21:24;;;;;;;1.30;1.17;;;34.20;47.50;;;;;;4981314;28;20027;-76
2023/07/21 12:23:49;;;;;;;1.55;1.27;;;34.30;47.70;;;;;;4950235;28;20031;-76
2023/07/21 12:26:15;;;;;;;2.55;1.88;;;34.40;47.30;;;;;;4978893;28;20054;-76
2023/07/21 12:28:41;;;;;;;1.77;1.63;;;34.60;47.40;;;;;;4967213;28;20041;-76
2023/07/21 12:31:07;;;;;;;1.67;1.45;;;35.20;46.10;;;;;;4954008;28;20038;-77
2023/07/21 12:33:35;;;;;;;1.25;1.25;;;35.30;46.20;;;;;;4951776;28;20034;-76
2023/07/21 12:36:00;;;;;;;2.25;1.60;;;35.30;46.10;;;;;;4968449;28;20022;-76
2023/07/21 12:38:26;;;;;;;2.15;1.95;;;35.00;45.30;;;;;;4965756;28;20033;-76
2023/07/21 12:40:52;;;;;;;1.63;1.52;;;34.90;44.70;;;;;;4965828;28;20031;-76